sensor_id;sensor_type;location;lat;lon;timestamp;P1;durP1;ratioP1;P2;durP2;ratioP2
22881;SDS011;11608;50.894;5.296;2022-10-31T00:00:07;58.65;;;47.80;;
22881;SDS011;11608;50.894;5.296;2022-10-31T00:02:33;51.55;;;45.85;;
22881;SDS011;11608;50.894;5.296;2022-10-31T00:05:00;51.38;;;44.72;;
22881;SDS011;11608;50.894;5.296;2022-10-31T00:07:26;50.25;;;43.35;;
22881;SDS011;11608;50.894;5.296;2022-10-31T00:09:52;52.50;;;43.92;;
22881;SDS011;11608;50.894;5.296;2022-10-31T00:12:21;50.00;;;44.45;;
22881;SDS011;11608;50.894;5.296;2022-10-31T00:14:47;51.03;;;43.55;;
22881;SDS011;11608;50.894;5.296;2022-10-31T00:17:13;47.80;;;40.22;;
22881;SDS011;11608;50.894;5.296;2022-10-31T00:19:39;50.85;;;43.03;;
22881;SDS011;11608;50.894;5.296;2022-10-31T00:22:05;45.78;;;41.08;;
22881;SDS011;11608;50.894;5.296;2022-10-31T00:24:31;45.45;;;40.53;;
22881;SDS011;11608;50.894;5.296;2022-10-31T00:26:57;50.78;;;42.13;;
22881;SDS011;11608;50.894;5.296;2022-10-31T00:29:23;49.45;;;41.55;;
22881;SDS011;11608;50.894;5.296;2022-10-31T00:31:49;47.13;;;42.17;;
22881;SDS011;11608;50.894;5.296;2022-10-31T00:34:15;47.17;;;42.17;;
22881;SDS011;11608;50.894;5.296;2022-10-31T00:36:43;52.17;;;41.05;;
22881;SDS011;11608;50.894;5.296;2022-10-31T00:39:09;46.50;;;41.45;;
22881;SDS011;11608;50.894;5.296;2022-10-31T00:41:35;45.67;;;40.92;;
22881;SDS011;11608;50.894;5.296;2022-10-31T00:44:01;45.53;;;40.70;;
22881;SDS011;11608;50.894;5.296;2022-10-31T00:46:27;44.75;;;40.38;;
22881;SDS011;11608;50.894;5.296;2022-10-31T00:48:56;46.00;;;41.20;;
22881;SDS011;11608;50.894;5.296;2022-10-31T00:51:24;46.25;;;40.75;;
22881;SDS011;11608;50.894;5.296;2022-10-31T00:53:50;46.25;;;41.13;;
22881;SDS011;11608;50.894;5.296;2022-10-31T00:56:16;44.80;;;40.08;;
22881;SDS011;11608;50.894;5.296;2022-10-31T00:58:42;44.45;;;40.05;;
22881;SDS011;11608;50.894;5.296;2022-10-31T01:01:09;45.17;;;40.28;;
22881;SDS011;11608;50.894;5.296;2022-10-31T01:03:35;48.78;;;40.78;;
22881;SDS011;11608;50.894;5.296;2022-10-31T01:06:07;44.35;;;39.53;;
22881;SDS011;11608;50.894;5.296;2022-10-31T01:08:35;43.30;;;38.80;;
22881;SDS011;11608;50.894;5.296;2022-10-31T01:11:11;44.50;;;39.83;;
22881;SDS011;11608;50.894;5.296;2022-10-31T01:13:37;45.85;;;41.08;;
22881;SDS011;11608;50.894;5.296;2022-10-31T01:16:06;45.42;;;40.58;;
22881;SDS011;11608;50.894;5.296;2022-10-31T01:18:33;48.13;;;40.92;;
22881;SDS011;11608;50.894;5.296;2022-10-31T01:23:28;44.65;;;39.00;;
22881;SDS011;11608;50.894;5.296;2022-10-31T01:26:01;44.83;;;40.15;;
22881;SDS011;11608;50.894;5.296;2022-10-31T01:28:27;46.60;;;39.95;;
22881;SDS011;11608;50.894;5.296;2022-10-31T01:30:53;44.67;;;40.08;;
22881;SDS011;11608;50.894;5.296;2022-10-31T01:33:19;46.33;;;41.33;;
22881;SDS011;11608;50.894;5.296;2022-10-31T01:35:48;44.38;;;39.78;;
22881;SDS011;11608;50.894;5.296;2022-10-31T01:38:14;45.78;;;40.92;;
22881;SDS011;11608;50.894;5.296;2022-10-31T01:40:40;46.38;;;41.30;;
22881;SDS011;11608;50.894;5.296;2022-10-31T01:43:09;45.95;;;39.08;;
22881;SDS011;11608;50.894;5.296;2022-10-31T01:45:37;43.30;;;38.83;;
22881;SDS011;11608;50.894;5.296;2022-10-31T01:48:03;43.78;;;39.17;;
22881;SDS011;11608;50.894;5.296;2022-10-31T01:50:35;45.50;;;40.83;;
22881;SDS011;11608;50.894;5.296;2022-10-31T01:53:02;45.45;;;40.70;;
22881;SDS011;11608;50.894;5.296;2022-10-31T01:55:36;45.47;;;40.63;;
22881;SDS011;11608;50.894;5.296;2022-10-31T01:58:05;43.40;;;38.72;;
22881;SDS011;11608;50.894;5.296;2022-10-31T02:00:31;42.55;;;38.40;;
22881;SDS011;11608;50.894;5.296;2022-10-31T02:02:57;43.33;;;39.20;;
22881;SDS011;11608;50.894;5.296;2022-10-31T02:05:24;41.05;;;37.25;;
22881;SDS011;11608;50.894;5.296;2022-10-31T02:10:36;42.35;;;37.92;;
22881;SDS011;11608;50.894;5.296;2022-10-31T02:13:04;40.72;;;36.83;;
22881;SDS011;11608;50.894;5.296;2022-10-31T02:15:31;42.65;;;38.30;;
22881;SDS011;11608;50.894;5.296;2022-10-31T02:17:58;41.45;;;37.47;;
22881;SDS011;11608;50.894;5.296;2022-10-31T02:20:25;44.47;;;39.92;;
22881;SDS011;11608;50.894;5.296;2022-10-31T02:23:06;44.95;;;39.55;;
22881;SDS011;11608;50.894;5.296;2022-10-31T02:25:51;42.75;;;38.60;;
22881;SDS011;11608;50.894;5.296;2022-10-31T02:31:00;42.58;;;38.35;;
22881;SDS011;11608;50.894;5.296;2022-10-31T02:33:49;41.22;;;37.08;;
22881;SDS011;11608;50.894;5.296;2022-10-31T02:36:20;40.92;;;36.97;;
22881;SDS011;11608;50.894;5.296;2022-10-31T02:41:25;38.00;;;34.38;;
22881;SDS011;11608;50.894;5.296;2022-10-31T02:52:28;44.35;;;39.65;;
22881;SDS011;11608;50.894;5.296;2022-10-31T02:54:55;44.22;;;39.95;;
22881;SDS011;11608;50.894;5.296;2022-10-31T02:57:28;42.92;;;38.78;;
22881;SDS011;11608;50.894;5.296;2022-10-31T03:00:06;44.58;;;39.88;;
22881;SDS011;11608;50.894;5.296;2022-10-31T03:08:34;42.25;;;37.88;;
22881;SDS011;11608;50.894;5.296;2022-10-31T03:11:03;42.42;;;38.22;;
22881;SDS011;11608;50.894;5.296;2022-10-31T03:13:34;41.70;;;36.85;;
22881;SDS011;11608;50.894;5.296;2022-10-31T03:16:12;41.85;;;37.53;;
22881;SDS011;11608;50.894;5.296;2022-10-31T03:18:40;41.50;;;37.65;;
22881;SDS011;11608;50.894;5.296;2022-10-31T03:21:11;40.60;;;36.50;;
22881;SDS011;11608;50.894;5.296;2022-10-31T03:23:42;40.72;;;36.38;;
22881;SDS011;11608;50.894;5.296;2022-10-31T03:26:10;41.20;;;37.03;;
22881;SDS011;11608;50.894;5.296;2022-10-31T03:28:39;38.80;;;34.95;;
22881;SDS011;11608;50.894;5.296;2022-10-31T03:31:07;41.47;;;37.50;;
22881;SDS011;11608;50.894;5.296;2022-10-31T03:33:35;39.88;;;36.33;;
22881;SDS011;11608;50.894;5.296;2022-10-31T03:36:02;39.40;;;35.80;;
22881;SDS011;11608;50.894;5.296;2022-10-31T03:38:29;39.78;;;36.33;;
22881;SDS011;11608;50.894;5.296;2022-10-31T03:40:57;40.20;;;36.50;;
22881;SDS011;11608;50.894;5.296;2022-10-31T03:43:26;41.03;;;37.35;;
22881;SDS011;11608;50.894;5.296;2022-10-31T03:45:54;41.70;;;37.35;;
22881;SDS011;11608;50.894;5.296;2022-10-31T03:48:20;39.92;;;36.00;;
22881;SDS011;11608;50.894;5.296;2022-10-31T03:53:14;41.47;;;37.47;;
22881;SDS011;11608;50.894;5.296;2022-10-31T03:55:52;42.17;;;37.85;;
22881;SDS011;11608;50.894;5.296;2022-10-31T03:58:21;39.78;;;35.78;;
22881;SDS011;11608;50.894;5.296;2022-10-31T04:00:51;38.15;;;34.85;;
22881;SDS011;11608;50.894;5.296;2022-10-31T04:03:25;39.45;;;35.78;;
22881;SDS011;11608;50.894;5.296;2022-10-31T04:05:52;40.38;;;36.72;;
22881;SDS011;11608;50.894;5.296;2022-10-31T04:08:20;38.83;;;35.30;;
22881;SDS011;11608;50.894;5.296;2022-10-31T04:10:48;39.38;;;35.53;;
22881;SDS011;11608;50.894;5.296;2022-10-31T04:13:16;38.78;;;35.05;;
22881;SDS011;11608;50.894;5.296;2022-10-31T04:15:43;38.22;;;34.60;;
22881;SDS011;11608;50.894;5.296;2022-10-31T04:18:10;39.55;;;35.85;;
22881;SDS011;11608;50.894;5.296;2022-10-31T04:20:37;38.80;;;35.20;;
22881;SDS011;11608;50.894;5.296;2022-10-31T04:23:03;39.97;;;36.22;;
22881;SDS011;11608;50.894;5.296;2022-10-31T04:25:29;39.13;;;35.25;;
22881;SDS011;11608;50.894;5.296;2022-10-31T04:27:55;37.95;;;34.58;;
22881;SDS011;11608;50.894;5.296;2022-10-31T04:30:22;39.35;;;35.67;;
22881;SDS011;11608;50.894;5.296;2022-10-31T04:32:50;40.17;;;36.28;;
22881;SDS011;11608;50.894;5.296;2022-10-31T04:35:16;38.60;;;35.13;;
22881;SDS011;11608;50.894;5.296;2022-10-31T04:37:42;40.22;;;36.03;;
22881;SDS011;11608;50.894;5.296;2022-10-31T04:40:08;40.20;;;36.67;;
22881;SDS011;11608;50.894;5.296;2022-10-31T04:42:37;37.58;;;34.50;;
22881;SDS011;11608;50.894;5.296;2022-10-31T04:45:03;37.15;;;33.72;;
22881;SDS011;11608;50.894;5.296;2022-10-31T04:47:30;39.10;;;35.60;;
22881;SDS011;11608;50.894;5.296;2022-10-31T04:49:57;40.28;;;36.40;;
22881;SDS011;11608;50.894;5.296;2022-10-31T04:52:23;40.53;;;36.90;;
22881;SDS011;11608;50.894;5.296;2022-10-31T04:54:49;41.35;;;37.42;;
22881;SDS011;11608;50.894;5.296;2022-10-31T04:57:15;39.67;;;36.10;;
22881;SDS011;11608;50.894;5.296;2022-10-31T04:59:41;40.00;;;36.28;;
22881;SDS011;11608;50.894;5.296;2022-10-31T05:02:07;40.08;;;36.42;;
22881;SDS011;11608;50.894;5.296;2022-10-31T05:04:33;39.83;;;36.25;;
22881;SDS011;11608;50.894;5.296;2022-10-31T05:06:59;38.33;;;34.80;;
22881;SDS011;11608;50.894;5.296;2022-10-31T05:09:25;38.25;;;34.75;;
22881;SDS011;11608;50.894;5.296;2022-10-31T05:11:51;37.85;;;34.78;;
22881;SDS011;11608;50.894;5.296;2022-10-31T05:14:17;37.80;;;34.38;;
22881;SDS011;11608;50.894;5.296;2022-10-31T05:16:43;38.22;;;34.83;;
22881;SDS011;11608;50.894;5.296;2022-10-31T05:19:09;37.67;;;34.20;;
22881;SDS011;11608;50.894;5.296;2022-10-31T05:21:35;39.25;;;35.20;;
22881;SDS011;11608;50.894;5.296;2022-10-31T05:24:01;39.30;;;35.42;;
22881;SDS011;11608;50.894;5.296;2022-10-31T05:26:27;39.95;;;36.33;;
22881;SDS011;11608;50.894;5.296;2022-10-31T05:28:53;38.13;;;34.25;;
22881;SDS011;11608;50.894;5.296;2022-10-31T05:31:19;38.45;;;34.55;;
22881;SDS011;11608;50.894;5.296;2022-10-31T05:33:45;38.00;;;34.33;;
22881;SDS011;11608;50.894;5.296;2022-10-31T05:36:11;38.88;;;35.35;;
22881;SDS011;11608;50.894;5.296;2022-10-31T05:38:37;39.10;;;35.30;;
22881;SDS011;11608;50.894;5.296;2022-10-31T05:41:04;39.28;;;35.33;;
22881;SDS011;11608;50.894;5.296;2022-10-31T05:43:30;38.67;;;34.88;;
22881;SDS011;11608;50.894;5.296;2022-10-31T05:45:56;39.13;;;35.15;;
22881;SDS011;11608;50.894;5.296;2022-10-31T05:48:24;38.22;;;34.25;;
22881;SDS011;11608;50.894;5.296;2022-10-31T05:50:50;36.85;;;33.45;;
22881;SDS011;11608;50.894;5.296;2022-10-31T05:53:17;35.63;;;32.22;;
22881;SDS011;11608;50.894;5.296;2022-10-31T05:55:43;37.10;;;33.80;;
22881;SDS011;11608;50.894;5.296;2022-10-31T05:58:09;37.55;;;33.85;;
22881;SDS011;11608;50.894;5.296;2022-10-31T06:00:35;36.22;;;32.75;;
22881;SDS011;11608;50.894;5.296;2022-10-31T06:03:03;35.40;;;31.98;;
22881;SDS011;11608;50.894;5.296;2022-10-31T06:05:29;35.22;;;31.92;;
22881;SDS011;11608;50.894;5.296;2022-10-31T06:07:56;35.67;;;32.03;;
22881;SDS011;11608;50.894;5.296;2022-10-31T06:10:25;35.30;;;32.17;;
22881;SDS011;11608;50.894;5.296;2022-10-31T06:12:51;36.42;;;32.80;;
22881;SDS011;11608;50.894;5.296;2022-10-31T06:15:17;36.92;;;33.60;;
22881;SDS011;11608;50.894;5.296;2022-10-31T06:17:43;34.65;;;31.38;;
22881;SDS011;11608;50.894;5.296;2022-10-31T06:20:09;34.63;;;31.33;;
22881;SDS011;11608;50.894;5.296;2022-10-31T06:22:35;33.78;;;30.45;;
22881;SDS011;11608;50.894;5.296;2022-10-31T06:25:01;34.97;;;32.17;;
22881;SDS011;11608;50.894;5.296;2022-10-31T06:27:28;34.67;;;31.67;;
22881;SDS011;11608;50.894;5.296;2022-10-31T06:29:54;37.35;;;33.90;;
22881;SDS011;11608;50.894;5.296;2022-10-31T06:32:20;37.25;;;33.53;;
22881;SDS011;11608;50.894;5.296;2022-10-31T06:34:46;36.20;;;32.92;;
22881;SDS011;11608;50.894;5.296;2022-10-31T06:37:15;36.60;;;33.40;;
22881;SDS011;11608;50.894;5.296;2022-10-31T06:39:41;35.60;;;32.25;;
22881;SDS011;11608;50.894;5.296;2022-10-31T06:42:07;35.38;;;32.33;;
22881;SDS011;11608;50.894;5.296;2022-10-31T06:44:33;33.33;;;30.58;;
22881;SDS011;11608;50.894;5.296;2022-10-31T06:46:59;31.15;;;28.65;;
22881;SDS011;11608;50.894;5.296;2022-10-31T06:49:25;30.02;;;27.67;;
22881;SDS011;11608;50.894;5.296;2022-10-31T06:51:51;30.33;;;27.85;;
22881;SDS011;11608;50.894;5.296;2022-10-31T06:54:17;31.30;;;28.65;;
22881;SDS011;11608;50.894;5.296;2022-10-31T06:56:45;30.42;;;28.02;;
22881;SDS011;11608;50.894;5.296;2022-10-31T06:59:14;36.90;;;33.42;;
22881;SDS011;11608;50.894;5.296;2022-10-31T07:01:41;35.83;;;32.35;;
22881;SDS011;11608;50.894;5.296;2022-10-31T07:04:08;35.60;;;32.25;;
22881;SDS011;11608;50.894;5.296;2022-10-31T07:06:34;34.88;;;31.52;;
22881;SDS011;11608;50.894;5.296;2022-10-31T07:09:00;35.22;;;31.70;;
22881;SDS011;11608;50.894;5.296;2022-10-31T07:11:26;36.33;;;33.17;;
22881;SDS011;11608;50.894;5.296;2022-10-31T07:13:52;36.83;;;33.47;;
22881;SDS011;11608;50.894;5.296;2022-10-31T07:16:18;36.60;;;33.42;;
22881;SDS011;11608;50.894;5.296;2022-10-31T07:18:44;37.17;;;33.63;;
22881;SDS011;11608;50.894;5.296;2022-10-31T07:21:10;36.22;;;32.83;;
22881;SDS011;11608;50.894;5.296;2022-10-31T07:23:36;40.40;;;36.13;;
22881;SDS011;11608;50.894;5.296;2022-10-31T07:26:03;37.63;;;33.90;;
22881;SDS011;11608;50.894;5.296;2022-10-31T07:28:29;40.58;;;36.30;;
22881;SDS011;11608;50.894;5.296;2022-10-31T07:30:56;38.67;;;34.97;;
22881;SDS011;11608;50.894;5.296;2022-10-31T07:33:22;38.45;;;34.83;;
22881;SDS011;11608;50.894;5.296;2022-10-31T07:35:48;40.17;;;36.60;;
22881;SDS011;11608;50.894;5.296;2022-10-31T07:38:14;41.28;;;37.40;;
22881;SDS011;11608;50.894;5.296;2022-10-31T07:40:41;42.35;;;38.38;;
22881;SDS011;11608;50.894;5.296;2022-10-31T07:43:08;42.03;;;38.00;;
22881;SDS011;11608;50.894;5.296;2022-10-31T07:45:34;42.22;;;37.50;;
22881;SDS011;11608;50.894;5.296;2022-10-31T07:48:00;42.45;;;37.28;;
22881;SDS011;11608;50.894;5.296;2022-10-31T07:50:28;42.53;;;38.28;;
22881;SDS011;11608;50.894;5.296;2022-10-31T07:53:01;41.20;;;36.50;;
22881;SDS011;11608;50.894;5.296;2022-10-31T07:55:28;40.60;;;36.53;;
22881;SDS011;11608;50.894;5.296;2022-10-31T07:57:56;40.70;;;36.70;;
22881;SDS011;11608;50.894;5.296;2022-10-31T08:00:22;40.67;;;36.53;;
22881;SDS011;11608;50.894;5.296;2022-10-31T08:02:48;39.42;;;35.70;;
22881;SDS011;11608;50.894;5.296;2022-10-31T08:05:14;39.83;;;35.80;;
22881;SDS011;11608;50.894;5.296;2022-10-31T08:07:40;38.58;;;34.95;;
22881;SDS011;11608;50.894;5.296;2022-10-31T08:10:06;37.53;;;34.10;;
22881;SDS011;11608;50.894;5.296;2022-10-31T08:12:32;39.78;;;35.92;;
22881;SDS011;11608;50.894;5.296;2022-10-31T08:14:58;38.72;;;34.60;;
22881;SDS011;11608;50.894;5.296;2022-10-31T08:17:24;36.90;;;33.30;;
22881;SDS011;11608;50.894;5.296;2022-10-31T08:19:52;37.28;;;33.78;;
22881;SDS011;11608;50.894;5.296;2022-10-31T08:22:18;39.42;;;35.83;;
22881;SDS011;11608;50.894;5.296;2022-10-31T08:24:44;36.60;;;33.13;;
22881;SDS011;11608;50.894;5.296;2022-10-31T08:27:16;38.35;;;34.60;;
22881;SDS011;11608;50.894;5.296;2022-10-31T08:29:42;37.42;;;33.92;;
22881;SDS011;11608;50.894;5.296;2022-10-31T08:32:08;36.72;;;33.42;;
22881;SDS011;11608;50.894;5.296;2022-10-31T08:34:37;36.60;;;33.28;;
22881;SDS011;11608;50.894;5.296;2022-10-31T08:37:03;36.55;;;33.22;;
22881;SDS011;11608;50.894;5.296;2022-10-31T08:39:29;36.80;;;33.08;;
22881;SDS011;11608;50.894;5.296;2022-10-31T08:41:55;36.45;;;32.88;;
22881;SDS011;11608;50.894;5.296;2022-10-31T08:44:23;36.85;;;33.25;;
22881;SDS011;11608;50.894;5.296;2022-10-31T08:46:52;34.75;;;31.10;;
22881;SDS011;11608;50.894;5.296;2022-10-31T08:49:18;36.95;;;33.03;;
22881;SDS011;11608;50.894;5.296;2022-10-31T08:51:47;35.42;;;31.95;;
22881;SDS011;11608;50.894;5.296;2022-10-31T08:54:13;36.95;;;33.05;;
22881;SDS011;11608;50.894;5.296;2022-10-31T08:56:39;35.75;;;32.20;;
22881;SDS011;11608;50.894;5.296;2022-10-31T08:59:05;36.53;;;32.78;;
22881;SDS011;11608;50.894;5.296;2022-10-31T09:01:31;36.55;;;32.78;;
22881;SDS011;11608;50.894;5.296;2022-10-31T09:03:57;36.05;;;32.38;;
22881;SDS011;11608;50.894;5.296;2022-10-31T09:06:23;40.33;;;34.03;;
22881;SDS011;11608;50.894;5.296;2022-10-31T09:08:49;36.67;;;32.80;;
22881;SDS011;11608;50.894;5.296;2022-10-31T09:11:15;39.42;;;35.63;;
22881;SDS011;11608;50.894;5.296;2022-10-31T09:13:41;39.03;;;35.22;;
22881;SDS011;11608;50.894;5.296;2022-10-31T09:16:07;39.58;;;35.58;;
22881;SDS011;11608;50.894;5.296;2022-10-31T09:18:33;42.63;;;36.42;;
22881;SDS011;11608;50.894;5.296;2022-10-31T09:21:00;39.83;;;36.05;;
22881;SDS011;11608;50.894;5.296;2022-10-31T09:23:26;39.72;;;35.70;;
22881;SDS011;11608;50.894;5.296;2022-10-31T09:25:52;43.65;;;39.17;;
22881;SDS011;11608;50.894;5.296;2022-10-31T09:28:20;44.42;;;38.47;;
22881;SDS011;11608;50.894;5.296;2022-10-31T09:30:47;44.10;;;39.80;;
22881;SDS011;11608;50.894;5.296;2022-10-31T09:33:13;43.75;;;39.05;;
22881;SDS011;11608;50.894;5.296;2022-10-31T09:35:40;43.53;;;39.05;;
22881;SDS011;11608;50.894;5.296;2022-10-31T09:38:08;42.88;;;38.45;;
22881;SDS011;11608;50.894;5.296;2022-10-31T09:48:15;43.35;;;38.80;;
22881;SDS011;11608;50.894;5.296;2022-10-31T09:50:53;43.42;;;39.38;;
22881;SDS011;11608;50.894;5.296;2022-10-31T09:53:29;44.53;;;39.33;;
22881;SDS011;11608;50.894;5.296;2022-10-31T09:55:57;42.63;;;38.40;;
22881;SDS011;11608;50.894;5.296;2022-10-31T09:58:25;42.55;;;37.95;;
22881;SDS011;11608;50.894;5.296;2022-10-31T10:00:52;41.97;;;37.78;;
22881;SDS011;11608;50.894;5.296;2022-10-31T10:06:28;43.75;;;38.47;;
22881;SDS011;11608;50.894;5.296;2022-10-31T10:08:35;43.60;;;39.00;;
22881;SDS011;11608;50.894;5.296;2022-10-31T10:21:32;42.80;;;38.42;;
22881;SDS011;11608;50.894;5.296;2022-10-31T10:26:30;44.78;;;37.90;;
22881;SDS011;11608;50.894;5.296;2022-10-31T10:29:01;42.85;;;38.17;;
22881;SDS011;11608;50.894;5.296;2022-10-31T10:31:29;42.75;;;38.33;;
22881;SDS011;11608;50.894;5.296;2022-10-31T10:34:02;43.17;;;38.72;;
22881;SDS011;11608;50.894;5.296;2022-10-31T10:39:04;43.13;;;38.38;;
22881;SDS011;11608;50.894;5.296;2022-10-31T10:41:33;42.45;;;38.08;;
22881;SDS011;11608;50.894;5.296;2022-10-31T10:43:59;41.65;;;37.15;;
22881;SDS011;11608;50.894;5.296;2022-10-31T10:46:48;41.03;;;36.80;;
22881;SDS011;11608;50.894;5.296;2022-10-31T10:59:56;40.03;;;36.05;;
22881;SDS011;11608;50.894;5.296;2022-10-31T11:02:29;39.92;;;35.70;;
22881;SDS011;11608;50.894;5.296;2022-10-31T11:05:00;42.03;;;35.20;;
22881;SDS011;11608;50.894;5.296;2022-10-31T11:07:36;41.03;;;34.53;;
22881;SDS011;11608;50.894;5.296;2022-10-31T11:10:05;40.00;;;35.60;;
22881;SDS011;11608;50.894;5.296;2022-10-31T11:12:38;39.15;;;35.08;;
22881;SDS011;11608;50.894;5.296;2022-10-31T11:15:15;39.53;;;35.47;;
22881;SDS011;11608;50.894;5.296;2022-10-31T11:17:42;40.75;;;36.38;;
22881;SDS011;11608;50.894;5.296;2022-10-31T11:22:37;39.50;;;35.45;;
22881;SDS011;11608;50.894;5.296;2022-10-31T11:27:58;39.83;;;35.42;;
22881;SDS011;11608;50.894;5.296;2022-10-31T11:30:24;42.22;;;35.47;;
22881;SDS011;11608;50.894;5.296;2022-10-31T11:32:50;41.83;;;36.25;;
22881;SDS011;11608;50.894;5.296;2022-10-31T11:35:18;41.83;;;37.35;;
22881;SDS011;11608;50.894;5.296;2022-10-31T11:37:44;42.05;;;36.42;;
22881;SDS011;11608;50.894;5.296;2022-10-31T11:40:15;40.60;;;36.45;;
22881;SDS011;11608;50.894;5.296;2022-10-31T11:42:42;40.33;;;36.03;;
22881;SDS011;11608;50.894;5.296;2022-10-31T11:47:41;39.47;;;35.22;;
22881;SDS011;11608;50.894;5.296;2022-10-31T11:50:09;40.92;;;36.63;;
22881;SDS011;11608;50.894;5.296;2022-10-31T11:52:36;39.28;;;35.30;;
22881;SDS011;11608;50.894;5.296;2022-10-31T11:59:57;39.58;;;35.30;;
22881;SDS011;11608;50.894;5.296;2022-10-31T12:02:23;41.53;;;36.50;;
22881;SDS011;11608;50.894;5.296;2022-10-31T12:07:22;40.20;;;36.00;;
22881;SDS011;11608;50.894;5.296;2022-10-31T12:09:48;51.35;;;40.85;;
22881;SDS011;11608;50.894;5.296;2022-10-31T12:15:10;40.40;;;34.88;;
22881;SDS011;11608;50.894;5.296;2022-10-31T12:25:49;38.33;;;34.17;;
22881;SDS011;11608;50.894;5.296;2022-10-31T12:28:33;38.10;;;34.25;;
22881;SDS011;11608;50.894;5.296;2022-10-31T12:43:36;36.97;;;33.15;;
22881;SDS011;11608;50.894;5.296;2022-10-31T12:46:07;35.83;;;32.33;;
22881;SDS011;11608;50.894;5.296;2022-10-31T12:48:56;37.10;;;33.45;;
22881;SDS011;11608;50.894;5.296;2022-10-31T12:51:32;35.25;;;31.73;;
22881;SDS011;11608;50.894;5.296;2022-10-31T12:54:20;35.60;;;32.25;;
22881;SDS011;11608;50.894;5.296;2022-10-31T12:56:58;36.65;;;33.20;;
22881;SDS011;11608;50.894;5.296;2022-10-31T13:04:38;36.03;;;32.47;;
22881;SDS011;11608;50.894;5.296;2022-10-31T13:07:07;35.47;;;31.42;;
22881;SDS011;11608;50.894;5.296;2022-10-31T13:09:38;35.55;;;32.03;;
22881;SDS011;11608;50.894;5.296;2022-10-31T13:12:15;35.90;;;32.30;;
22881;SDS011;11608;50.894;5.296;2022-10-31T13:14:44;34.30;;;31.00;;
22881;SDS011;11608;50.894;5.296;2022-10-31T13:20:15;36.17;;;31.90;;
22881;SDS011;11608;50.894;5.296;2022-10-31T13:22:42;35.13;;;31.63;;
22881;SDS011;11608;50.894;5.296;2022-10-31T13:25:21;33.13;;;30.10;;
22881;SDS011;11608;50.894;5.296;2022-10-31T13:30:18;32.92;;;29.92;;
22881;SDS011;11608;50.894;5.296;2022-10-31T13:35:33;34.60;;;29.25;;
22881;SDS011;11608;50.894;5.296;2022-10-31T13:38:03;34.00;;;29.58;;
22881;SDS011;11608;50.894;5.296;2022-10-31T13:45:49;32.92;;;29.55;;
22881;SDS011;11608;50.894;5.296;2022-10-31T13:50:42;33.45;;;30.15;;
22881;SDS011;11608;50.894;5.296;2022-10-31T13:53:13;33.25;;;29.75;;
22881;SDS011;11608;50.894;5.296;2022-10-31T13:55:41;33.00;;;29.92;;
22881;SDS011;11608;50.894;5.296;2022-10-31T14:03:30;34.17;;;30.80;;
22881;SDS011;11608;50.894;5.296;2022-10-31T14:05:58;33.15;;;29.88;;
22881;SDS011;11608;50.894;5.296;2022-10-31T14:08:24;34.45;;;30.95;;
22881;SDS011;11608;50.894;5.296;2022-10-31T14:10:51;32.83;;;28.92;;
22881;SDS011;11608;50.894;5.296;2022-10-31T14:13:20;34.55;;;28.95;;
22881;SDS011;11608;50.894;5.296;2022-10-31T14:15:54;32.00;;;28.75;;
22881;SDS011;11608;50.894;5.296;2022-10-31T14:18:34;31.42;;;28.17;;
22881;SDS011;11608;50.894;5.296;2022-10-31T14:21:01;33.25;;;29.95;;
22881;SDS011;11608;50.894;5.296;2022-10-31T14:23:39;35.28;;;29.95;;
22881;SDS011;11608;50.894;5.296;2022-10-31T14:28:47;33.22;;;29.80;;
22881;SDS011;11608;50.894;5.296;2022-10-31T14:31:30;34.50;;;30.95;;
22881;SDS011;11608;50.894;5.296;2022-10-31T14:33:58;33.65;;;30.42;;
22881;SDS011;11608;50.894;5.296;2022-10-31T14:36:42;32.05;;;28.95;;
22881;SDS011;11608;50.894;5.296;2022-10-31T14:47:04;36.28;;;32.65;;
22881;SDS011;11608;50.894;5.296;2022-10-31T14:49:47;37.28;;;33.42;;
22881;SDS011;11608;50.894;5.296;2022-10-31T14:52:16;36.42;;;32.85;;
22881;SDS011;11608;50.894;5.296;2022-10-31T14:54:45;35.90;;;32.13;;
22881;SDS011;11608;50.894;5.296;2022-10-31T14:59:51;37.10;;;33.33;;
22881;SDS011;11608;50.894;5.296;2022-10-31T15:02:20;35.80;;;32.28;;
22881;SDS011;11608;50.894;5.296;2022-10-31T15:04:48;37.33;;;33.67;;
22881;SDS011;11608;50.894;5.296;2022-10-31T15:07:23;35.92;;;32.13;;
22881;SDS011;11608;50.894;5.296;2022-10-31T15:10:04;33.67;;;30.27;;
22881;SDS011;11608;50.894;5.296;2022-10-31T15:12:32;32.78;;;29.30;;
22881;SDS011;11608;50.894;5.296;2022-10-31T15:15:10;34.53;;;30.92;;
22881;SDS011;11608;50.894;5.296;2022-10-31T15:17:41;33.05;;;29.58;;
22881;SDS011;11608;50.894;5.296;2022-10-31T15:20:10;31.10;;;27.88;;
22881;SDS011;11608;50.894;5.296;2022-10-31T15:22:36;30.92;;;27.52;;
22881;SDS011;11608;50.894;5.296;2022-10-31T15:25:02;29.85;;;26.98;;
22881;SDS011;11608;50.894;5.296;2022-10-31T15:27:29;29.83;;;27.02;;
22881;SDS011;11608;50.894;5.296;2022-10-31T15:29:55;30.48;;;27.55;;
22881;SDS011;11608;50.894;5.296;2022-10-31T15:32:22;29.20;;;26.50;;
22881;SDS011;11608;50.894;5.296;2022-10-31T15:34:49;28.80;;;25.80;;
22881;SDS011;11608;50.894;5.296;2022-10-31T15:37:17;29.77;;;26.85;;
22881;SDS011;11608;50.894;5.296;2022-10-31T15:39:44;28.20;;;25.33;;
22881;SDS011;11608;50.894;5.296;2022-10-31T15:42:16;28.63;;;25.38;;
22881;SDS011;11608;50.894;5.296;2022-10-31T15:44:43;27.52;;;24.92;;
22881;SDS011;11608;50.894;5.296;2022-10-31T15:47:15;29.15;;;26.42;;
22881;SDS011;11608;50.894;5.296;2022-10-31T15:49:54;27.55;;;24.85;;
22881;SDS011;11608;50.894;5.296;2022-10-31T15:52:28;29.17;;;26.30;;
22881;SDS011;11608;50.894;5.296;2022-10-31T15:55:04;31.52;;;28.60;;
22881;SDS011;11608;50.894;5.296;2022-10-31T15:57:31;31.08;;;28.08;;
22881;SDS011;11608;50.894;5.296;2022-10-31T15:59:57;27.92;;;25.38;;
22881;SDS011;11608;50.894;5.296;2022-10-31T16:02:24;28.98;;;26.20;;
22881;SDS011;11608;50.894;5.296;2022-10-31T16:04:54;27.38;;;25.08;;
22881;SDS011;11608;50.894;5.296;2022-10-31T16:07:21;25.08;;;22.88;;
22881;SDS011;11608;50.894;5.296;2022-10-31T16:09:52;25.33;;;22.98;;
22881;SDS011;11608;50.894;5.296;2022-10-31T16:12:18;25.15;;;22.75;;
22881;SDS011;11608;50.894;5.296;2022-10-31T16:14:44;23.67;;;21.63;;
22881;SDS011;11608;50.894;5.296;2022-10-31T16:17:11;24.83;;;22.25;;
22881;SDS011;11608;50.894;5.296;2022-10-31T16:19:44;23.83;;;21.80;;
22881;SDS011;11608;50.894;5.296;2022-10-31T16:22:13;27.92;;;25.20;;
22881;SDS011;11608;50.894;5.296;2022-10-31T16:24:49;27.92;;;21.65;;
22881;SDS011;11608;50.894;5.296;2022-10-31T16:27:20;23.17;;;21.10;;
22881;SDS011;11608;50.894;5.296;2022-10-31T16:29:54;23.67;;;21.52;;
22881;SDS011;11608;50.894;5.296;2022-10-31T16:32:32;23.73;;;21.50;;
22881;SDS011;11608;50.894;5.296;2022-10-31T16:35:16;23.30;;;20.95;;
22881;SDS011;11608;50.894;5.296;2022-10-31T16:37:42;22.95;;;20.83;;
22881;SDS011;11608;50.894;5.296;2022-10-31T16:40:12;23.50;;;20.70;;
22881;SDS011;11608;50.894;5.296;2022-10-31T16:42:38;23.20;;;20.75;;
22881;SDS011;11608;50.894;5.296;2022-10-31T16:45:05;23.42;;;21.48;;
22881;SDS011;11608;50.894;5.296;2022-10-31T16:47:31;23.42;;;21.50;;
22881;SDS011;11608;50.894;5.296;2022-10-31T16:49:57;25.90;;;23.45;;